Time;durP1;ratioP1;P1;durP2;ratioP2;P2;SDS_P1;SDS_P2;PMS_P1;PMS_P2;Temp;Humidity;BMP_temperature;BMP_pressure;BME280_temperature;BME280_humidity;BME280_pressure;Samples;Min_cycle;Max_cycle;Signal;HPM_P1;HPM_P2
2022/06/07 00:02:06;;;;;;;0.10;0.10;;;;;;;13.68;100.00;101328.19;5042393;28;20274;-65
2022/06/07 00:04:33;;;;;;;0.10;0.10;;;;;;;13.74;100.00;101332.53;5043282;28;20029;-65
2022/06/07 00:06:59;;;;;;;0.10;0.10;;;;;;;13.74;100.00;101320.66;5044249;28;20021;-64
2022/06/07 00:09:25;;;;;;;0.10;0.10;;;;;;;13.67;100.00;101321.00;5041126;28;20021;-64
2022/06/07 00:11:52;;;;;;;0.10;0.10;;;;;;;13.69;100.00;101320.72;5039586;28;20032;-64
2022/06/07 00:14:19;;;;;;;0.08;0.08;;;;;;;13.84;100.00;101312.31;5040981;28;20331;-65
2022/06/07 00:16:44;;;;;;;0.10;0.10;;;;;;;13.78;100.00;101321.75;5044159;28;20029;-64
2022/06/07 00:19:10;;;;;;;0.00;0.00;;;;;;;13.86;100.00;101312.84;5043187;28;20051;-64
2022/06/07 00:21:35;;;;;;;0.17;0.17;;;;;;;14.00;100.00;101314.88;5044508;28;20078;-64
2022/06/07 00:24:02;;;;;;;0.10;0.10;;;;;;;13.86;100.00;101318.34;5038801;28;20025;-63
2022/06/07 00:26:29;;;;;;;0.10;0.10;;;;;;;13.70;100.00;101312.16;5040672;28;20334;-65
2022/06/07 00:28:55;;;;;;;0.10;0.10;;;;;;;13.78;100.00;101317.03;5038597;28;20467;-64
2022/06/07 00:31:21;;;;;;;0.08;0.08;;;;;;;13.96;100.00;101311.88;5041427;28;20094;-65
2022/06/07 00:33:47;;;;;;;0.10;0.10;;;;;;;13.95;100.00;101313.00;5042560;28;20040;-65
2022/06/07 00:36:12;;;;;;;0.10;0.10;;;;;;;13.94;100.00;101303.91;5024327;28;20352;-64
2022/06/07 00:38:38;;;;;;;0.10;0.10;;;;;;;13.85;100.00;101302.91;5040432;28;20460;-64
2022/06/07 00:41:04;;;;;;;0.20;0.20;;;;;;;13.90;100.00;101307.53;5043694;28;20048;-64
2022/06/07 00:43:30;;;;;;;0.10;0.10;;;;;;;14.03;100.00;101306.84;5028164;28;20024;-64
2022/06/07 00:45:59;;;;;;;0.28;0.28;;;;;;;13.94;100.00;101300.34;5064645;28;20403;-64
2022/06/07 00:48:25;;;;;;;0.10;0.10;;;;;;;14.02;100.00;101290.59;5061615;28;20035;-64
2022/06/07 00:51:02;;;;;;;1.98;1.55;;;;;;;13.83;100.00;101293.31;5046862;28;20051;-64
2022/06/07 00:53:31;;;;;;;0.22;0.22;;;;;;;13.98;100.00;101293.94;5060828;28;20088;-64
2022/06/07 00:55:57;;;;;;;0.10;0.10;;;;;;;14.12;100.00;101288.53;5062249;28;20127;-64
2022/06/07 00:58:26;;;;;;;0.10;0.10;;;;;;;13.83;100.00;101290.56;5057742;28;20075;-65
2022/06/07 01:00:53;;;;;;;0.13;0.13;;;;;;;13.67;100.00;101287.94;5062654;28;20119;-65
2022/06/07 01:03:20;;;;;;;0.20;0.20;;;;;;;13.87;100.00;101284.16;5061044;28;20051;-65
2022/06/07 01:05:50;;;;;;;0.10;0.10;;;;;;;13.77;100.00;101289.78;5061584;28;20506;-64
2022/06/07 01:10:59;;;;;;;0.10;0.10;;;;;;;14.01;100.00;101280.69;5062927;28;20051;-64
2022/06/07 01:13:28;;;;;;;0.10;0.10;;;;;;;13.98;100.00;101287.59;5055251;28;20094;-65
2022/06/07 01:16:02;;;;;;;0.08;0.08;;;;;;;13.77;100.00;101278.75;5056629;28;20025;-63
2022/06/07 01:18:31;;;;;;;0.10;0.10;;;;;;;13.96;100.00;101289.84;5038672;28;20305;-64
2022/06/07 01:21:22;;;;;;;0.10;0.10;;;;;;;13.65;100.00;101281.09;5043541;28;20115;-65
2022/06/07 01:23:48;;;;;;;0.10;0.10;;;;;;;13.91;100.00;101287.97;5042607;28;20566;-65
2022/06/07 01:26:14;;;;;;;0.20;0.20;;;;;;;13.93;100.00;101285.72;5044925;28;20037;-64
2022/06/07 01:28:39;;;;;;;0.28;0.28;;;;;;;14.00;100.00;101285.38;5043735;28;20039;-64
2022/06/07 01:31:06;;;;;;;0.10;0.10;;;;;;;13.85;100.00;101280.84;5048850;28;20541;-64
2022/06/07 01:33:32;;;;;;;0.10;0.10;;;;;;;13.79;100.00;101277.34;5027820;28;20383;-64
2022/06/07 01:36:07;;;;;;;0.10;0.10;;;;;;;14.07;100.00;101271.22;5049467;28;20079;-64
2022/06/07 01:38:35;;;;;;;0.05;0.05;;;;;;;14.02;100.00;101274.03;5044260;28;20110;-62
2022/06/07 01:43:45;;;;;;;0.00;0.00;;;;;;;13.97;100.00;101273.00;5043118;28;20372;-64
2022/06/07 01:46:11;;;;;;;0.00;0.00;;;;;;;13.78;100.00;101283.16;5046930;28;20029;-65
2022/06/07 01:48:38;;;;;;;0.10;0.10;;;;;;;13.82;100.00;101275.94;5028677;28;20028;-64
2022/06/07 01:51:05;;;;;;;0.10;0.10;;;;;;;13.96;100.00;101268.59;5047937;28;20039;-65
2022/06/07 01:53:32;;;;;;;0.10;0.10;;;;;;;14.05;100.00;101266.03;5043238;28;20341;-64
2022/06/07 01:56:15;;;;;;;0.10;0.10;;;;;;;14.17;100.00;101273.88;5046460;28;20028;-65
2022/06/07 01:58:43;;;;;;;0.17;0.17;;;;;;;13.83;100.00;101269.31;5044988;28;20048;-64
2022/06/07 02:01:10;;;;;;;0.10;0.10;;;;;;;14.01;100.00;101264.16;5046330;28;20438;-64
2022/06/07 02:03:36;;;;;;;0.10;0.10;;;;;;;14.06;100.00;101261.31;5044272;28;20128;-64
2022/06/07 02:06:08;;;;;;;0.10;0.10;;;;;;;13.98;100.00;101260.84;5047136;28;20135;-64
2022/06/07 02:08:37;;;;;;;0.10;0.10;;;;;;;14.04;100.00;101266.31;5023596;28;20123;-64
2022/06/07 02:11:09;;;;;;;0.30;0.30;;;;;;;13.97;100.00;101263.94;5013024;28;20367;-64
2022/06/07 02:13:35;;;;;;;0.20;0.20;;;;;;;14.03;100.00;101256.41;5053167;28;20028;-64
2022/06/07 02:16:01;;;;;;;0.10;0.10;;;;;;;13.93;100.00;101257.34;5066919;28;20279;-65
2022/06/07 02:18:27;;;;;;;0.05;0.05;;;;;;;14.22;100.00;101260.00;5064433;28;20114;-64
2022/06/07 02:20:54;;;;;;;0.85;0.28;;;;;;;14.13;100.00;101259.00;5065701;28;20521;-65
2022/06/07 02:23:21;;;;;;;0.65;0.13;;;;;;;14.14;100.00;101253.22;5064993;28;20033;-64
2022/06/07 02:25:51;;;;;;;0.10;0.10;;;;;;;14.25;100.00;101251.16;5063006;28;20024;-64
2022/06/07 02:28:18;;;;;;;0.20;0.20;;;;;;;14.06;100.00;101261.31;5060429;28;20370;-64
2022/06/07 02:30:45;;;;;;;0.22;0.22;;;;;;;14.10;100.00;101251.34;5066106;28;20508;-65
2022/06/07 02:33:13;;;;;;;0.10;0.10;;;;;;;14.01;100.00;101251.19;5063234;28;20421;-64
2022/06/07 02:35:40;;;;;;;0.10;0.10;;;;;;;14.06;100.00;101251.09;5048057;28;20037;-64
2022/06/07 02:38:07;;;;;;;0.10;0.10;;;;;;;13.96;100.00;101254.81;5065522;28;20032;-64
2022/06/07 02:40:34;;;;;;;0.10;0.10;;;;;;;14.10;100.00;101248.56;5060580;28;20200;-64
2022/06/07 02:42:59;;;;;;;0.10;0.10;;;;;;;14.11;100.00;101244.72;5062583;28;20027;-65
2022/06/07 02:45:24;;;;;;;0.20;0.20;;;;;;;14.14;100.00;101242.19;5064988;28;20036;-64
2022/06/07 02:47:50;;;;;;;0.10;0.10;;;;;;;14.06;100.00;101242.03;5065710;28;20036;-64
2022/06/07 02:50:16;;;;;;;0.28;0.28;;;;;;;14.06;100.00;101242.84;5045960;28;20319;-64
2022/06/07 02:52:41;;;;;;;0.10;0.10;;;;;;;14.20;100.00;101234.66;5064333;28;20031;-65
2022/06/07 02:55:07;;;;;;;0.38;0.38;;;;;;;14.17;100.00;101238.03;5037352;28;20487;-64
2022/06/07 02:57:33;;;;;;;0.10;0.10;;;;;;;14.14;100.00;101238.63;5040623;28;20437;-64
2022/06/07 02:59:58;;;;;;;0.10;0.10;;;;;;;14.14;100.00;101231.16;5046433;28;20513;-64
2022/06/07 03:02:23;;;;;;;0.10;0.10;;;;;;;14.01;100.00;101240.16;5062966;28;20032;-65
2022/06/07 03:04:49;;;;;;;0.10;0.10;;;;;;;14.01;100.00;101228.31;5065702;28;20035;-63
2022/06/07 03:07:16;;;;;;;0.10;0.10;;;;;;;14.09;100.00;101238.69;5065569;28;20130;-64
2022/06/07 03:09:41;;;;;;;0.10;0.10;;;;;;;14.04;100.00;101233.25;5061974;28;20128;-64
2022/06/07 03:12:07;;;;;;;0.10;0.10;;;;;;;14.05;100.00;101232.94;5063355;28;20233;-65
2022/06/07 03:14:33;;;;;;;0.20;0.20;;;;;;;14.14;100.00;101236.66;5045758;28;20032;-63
2022/06/07 03:16:58;;;;;;;0.20;0.20;;;;;;;14.08;100.00;101232.31;5065229;28;20028;-64
2022/06/07 03:19:24;;;;;;;0.10;0.10;;;;;;;14.14;100.00;101235.84;5063738;28;20047;-64
2022/06/07 03:21:49;;;;;;;0.10;0.10;;;;;;;14.21;100.00;101230.78;5066345;28;20028;-63
2022/06/07 03:24:16;;;;;;;0.10;0.10;;;;;;;14.06;100.00;101233.75;5045546;28;20038;-64
2022/06/07 03:26:41;;;;;;;0.10;0.10;;;;;;;14.18;100.00;101238.84;5032167;28;20028;-64
2022/06/07 03:29:08;;;;;;;0.10;0.10;;;;;;;14.24;100.00;101240.41;5041846;28;20391;-65
2022/06/07 03:31:33;;;;;;;0.10;0.10;;;;;;;14.23;100.00;101238.75;5064728;28;20032;-65
2022/06/07 03:33:58;;;;;;;0.10;0.10;;;;;;;14.25;100.00;101240.13;5036926;28;20386;-64
2022/06/07 03:36:28;;;;;;;0.10;0.10;;;;;;;14.11;100.00;101240.00;5042314;28;20325;-65
2022/06/07 03:38:57;;;;;;;0.10;0.10;;;;;;;14.20;100.00;101247.63;5040103;28;20154;-63
2022/06/07 03:41:26;;;;;;;0.10;0.10;;;;;;;14.37;100.00;101244.38;5043990;28;20510;-64
2022/06/07 03:43:51;;;;;;;0.10;0.10;;;;;;;14.21;100.00;101247.31;5039712;28;20076;-63
2022/06/07 03:46:20;;;;;;;0.10;0.10;;;;;;;14.39;100.00;101251.22;5046459;28;20475;-65
2022/06/07 03:48:46;;;;;;;0.10;0.10;;;;;;;14.20;100.00;101250.38;5026702;28;20029;-65
2022/06/07 03:51:14;;;;;;;0.10;0.10;;;;;;;14.28;100.00;101253.31;5043004;28;20033;-64
2022/06/07 03:53:40;;;;;;;0.20;0.20;;;;;;;14.18;100.00;101250.66;5039180;28;20180;-65
2022/06/07 03:56:06;;;;;;;0.10;0.10;;;;;;;14.26;100.00;101263.78;5045933;28;20033;-64
2022/06/07 03:58:33;;;;;;;0.08;0.08;;;;;;;14.30;100.00;101264.06;5034587;28;20071;-63
2022/06/07 04:01:01;;;;;;;0.10;0.10;;;;;;;14.42;100.00;101263.59;5042568;28;20036;-63
2022/06/07 04:03:28;;;;;;;0.10;0.10;;;;;;;14.35;100.00;101263.97;5043092;28;20051;-63
2022/06/07 04:05:54;;;;;;;0.10;0.10;;;;;;;14.52;100.00;101258.75;5045563;28;20111;-64
2022/06/07 04:08:39;;;;;;;0.10;0.10;;;;;;;14.58;100.00;101262.25;5044933;28;20021;-64
2022/06/07 04:11:04;;;;;;;0.08;0.08;;;;;;;14.08;100.00;101264.59;5064181;28;20733;-64
2022/06/07 04:13:32;;;;;;;0.10;0.10;;;;;;;14.42;100.00;101267.16;5057265;28;20070;-64
2022/06/07 04:15:57;;;;;;;0.10;0.10;;;;;;;14.17;100.00;101265.59;5064452;28;20757;-64
2022/06/07 04:18:23;;;;;;;0.00;0.00;;;;;;;14.38;100.00;101270.81;5062631;28;20493;-63
2022/06/07 04:20:48;;;;;;;0.10;0.10;;;;;;;14.07;100.00;101268.47;5047519;28;20032;-64
2022/06/07 04:23:17;;;;;;;0.10;0.10;;;;;;;14.36;100.00;101267.53;5063687;28;20032;-64
2022/06/07 04:25:43;;;;;;;0.10;0.10;;;;;;;14.34;100.00;101268.66;5059405;28;20125;-64
2022/06/07 04:28:09;;;;;;;0.10;0.10;;;;;;;14.41;100.00;101276.56;5041587;28;20028;-64
2022/06/07 04:30:35;;;;;;;0.10;0.10;;;;;;;14.40;100.00;101272.16;5063669;28;20032;-64
2022/06/07 04:33:01;;;;;;;0.10;0.10;;;;;;;14.55;100.00;101271.13;5061834;28;20478;-64
2022/06/07 04:35:27;;;;;;;0.10;0.10;;;;;;;14.45;100.00;101274.84;5059998;28;20063;-63
2022/06/07 04:37:53;;;;;;;0.10;0.10;;;;;;;14.30;100.00;101277.84;5061976;28;20036;-64
2022/06/07 04:40:19;;;;;;;0.10;0.10;;;;;;;14.27;100.00;101284.75;5062465;28;20442;-63
2022/06/07 04:42:44;;;;;;;0.10;0.10;;;;;;;14.65;100.00;101276.50;5060235;28;20476;-64
2022/06/07 04:45:14;;;;;;;0.10;0.10;;;;;;;14.45;100.00;101282.31;5060109;28;20569;-65
2022/06/07 04:47:41;;;;;;;0.10;0.10;;;;;;;14.61;100.00;101288.44;5060606;28;20462;-64
2022/06/07 04:50:16;;;;;;;0.10;0.10;;;;;;;14.36;100.00;101286.84;5062423;28;20133;-64
2022/06/07 04:52:43;;;;;;;0.10;0.10;;;;;;;14.50;100.00;101283.06;5061774;28;20024;-65
2022/06/07 04:55:10;;;;;;;0.10;0.10;;;;;;;14.44;100.00;101280.66;5042488;28;20025;-63
2022/06/07 04:57:35;;;;;;;0.10;0.10;;;;;;;14.63;100.00;101286.22;5058081;28;20514;-64
2022/06/07 05:00:01;;;;;;;0.10;0.10;;;;;;;14.53;100.00;101284.41;5059659;28;20120;-64
2022/06/07 05:02:27;;;;;;;0.10;0.10;;;;;;;14.61;100.00;101282.94;5061786;28;20391;-63
2022/06/07 05:04:53;;;;;;;0.10;0.10;;;;;;;14.74;100.00;101281.38;5044173;28;20029;-63
2022/06/07 05:07:18;;;;;;;0.30;0.30;;;;;;;14.62;100.00;101284.56;5044951;28;20024;-64
2022/06/07 05:09:44;;;;;;;0.10;0.10;;;;;;;14.87;100.00;101277.84;5051041;28;20471;-65
2022/06/07 05:12:09;;;;;;;0.10;0.10;;;;;;;14.70;100.00;101283.91;5041079;28;20109;-62
2022/06/07 05:14:35;;;;;;;0.00;0.00;;;;;;;14.62;100.00;101290.09;5039710;28;20451;-63
2022/06/07 05:17:01;;;;;;;0.10;0.10;;;;;;;14.61;100.00;101292.03;5043310;28;20070;-63
2022/06/07 05:19:33;;;;;;;18.50;12.07;;;;;;;14.81;100.00;101288.16;5024758;28;20078;-64
2022/06/07 05:21:59;;;;;;;21.67;12.83;;;;;;;15.27;100.00;101285.75;5040236;28;20044;-64
2022/06/07 05:24:26;;;;;;;14.95;11.05;;;;;;;15.20;100.00;101291.66;5041878;28;20274;-65
2022/06/07 05:26:58;;;;;;;16.40;10.25;;;;;;;14.92;100.00;101302.63;5039845;28;20056;-65
2022/06/07 05:29:36;;;;;;;17.73;10.93;;;;;;;14.82;100.00;101300.00;5041283;28;20104;-64
2022/06/07 05:32:02;;;;;;;14.30;10.65;;;;;;;14.77;100.00;101292.63;5043749;28;20033;-64
2022/06/07 05:34:29;;;;;;;18.23;10.43;;;;;;;14.68;100.00;101294.44;5043945;28;20039;-63
2022/06/07 05:36:54;;;;;;;15.18;10.60;;;;;;;15.17;100.00;101286.75;5025312;28;20576;-64
2022/06/07 05:39:26;;;;;;;16.52;10.45;;;;;;;15.00;100.00;101290.91;5046495;28;20116;-64
2022/06/07 05:41:54;;;;;;;17.55;10.18;;;;;;;15.15;100.00;101289.81;5060057;28;20034;-63
2022/06/07 05:44:21;;;;;;;16.60;10.18;;;;;;;15.11;100.00;101290.72;5027543;28;20348;-63
2022/06/07 05:46:48;;;;;;;15.65;9.93;;;;;;;15.34;100.00;101291.69;5061171;28;20209;-64
2022/06/07 05:49:14;;;;;;;17.02;9.50;;;;;;;15.15;100.00;101292.59;5061187;28;20025;-64
2022/06/07 05:51:40;;;;;;;14.07;9.45;;;;;;;15.03;100.00;101295.78;5062392;28;20036;-63
2022/06/07 05:54:06;;;;;;;16.08;10.55;;;;;;;15.22;100.00;101293.00;5062053;28;20020;-64
2022/06/07 05:56:33;;;;;;;15.93;10.93;;;;;;;15.46;100.00;101297.53;5062585;28;20033;-63
2022/06/07 05:58:59;;;;;;;14.85;10.68;;;;;;;15.19;100.00;101298.31;5041338;28;20040;-63
2022/06/07 06:01:26;;;;;;;17.17;10.40;;;;;;;15.19;100.00;101298.31;5064291;28;20039;-63
2022/06/07 06:03:52;;;;;;;16.70;10.50;;;;;;;15.07;100.00;101301.56;5062560;28;20362;-65
2022/06/07 06:06:18;;;;;;;15.65;10.82;;;;;;;15.14;100.00;101301.16;5064229;28;20024;-65
2022/06/07 06:11:27;;;;;;;15.95;10.32;;;;;;;15.77;100.00;101300.63;5062333;28;20398;-64
2022/06/07 06:13:53;;;;;;;17.08;10.90;;;;;;;15.72;100.00;101306.19;5060648;28;20032;-63
2022/06/07 06:16:20;;;;;;;12.82;10.90;;;;;;;15.98;100.00;101305.72;5066495;28;20040;-63
2022/06/07 06:18:51;;;;;;;14.07;10.75;;;;;;;16.17;100.00;101317.50;5064521;28;20028;-63
2022/06/07 06:21:18;;;;;;;15.88;11.02;;;;;;;15.71;100.00;101300.97;5066057;28;20036;-64
2022/06/07 06:23:44;;;;;;;14.35;11.00;;;;;;;15.90;100.00;101317.50;5063011;28;20550;-64
2022/06/07 06:26:11;;;;;;;16.00;10.38;;;;;;;15.84;100.00;101311.25;5067363;28;20051;-64
2022/06/07 06:28:38;;;;;;;15.55;10.70;;;;;;;16.37;100.00;101309.91;5063857;28;20136;-64
2022/06/07 06:31:06;;;;;;;15.32;10.40;;;;;;;16.19;100.00;101308.88;5065271;28;20020;-64
2022/06/07 06:33:37;;;;;;;15.75;10.93;;;;;;;16.26;100.00;101319.53;5045441;28;20029;-64
2022/06/07 06:36:04;;;;;;;17.23;11.23;;;;;;;16.12;100.00;101314.84;5046500;28;20029;-64
2022/06/07 06:38:31;;;;;;;14.65;10.57;;;;;;;16.01;100.00;101321.69;5028310;28;20118;-64
2022/06/07 06:40:57;;;;;;;16.77;10.63;;;;;;;16.25;100.00;101317.88;5043497;28;20472;-64
2022/06/07 06:43:22;;;;;;;16.02;11.50;;;;;;;16.10;100.00;101319.88;5044673;28;20025;-64
2022/06/07 06:45:48;;;;;;;14.18;11.43;;;;;;;16.27;100.00;101321.19;5042372;28;20048;-64
2022/06/07 06:48:15;;;;;;;18.50;10.65;;;;;;;16.22;100.00;101324.88;5047256;28;20503;-64
2022/06/07 06:50:40;;;;;;;20.10;11.35;;;;;;;16.22;100.00;101324.88;5044794;28;20124;-63
2022/06/07 06:53:06;;;;;;;17.05;10.95;;;;;;;16.47;100.00;101325.44;5046586;28;20139;-64
2022/06/07 06:55:32;;;;;;;14.35;10.93;;;;;;;16.20;100.00;101318.00;5043238;28;20061;-64
2022/06/07 06:57:57;;;;;;;14.00;11.05;;;;;;;16.31;100.00;101316.66;5042007;28;20521;-64
2022/06/07 07:00:23;;;;;;;17.65;11.13;;;;;;;16.34;100.00;101327.91;5043678;28;20479;-63
2022/06/07 07:02:49;;;;;;;15.98;10.55;;;;;;;16.29;100.00;101322.50;5045221;28;20111;-64
2022/06/07 07:05:16;;;;;;;19.08;11.25;;;;;;;16.78;100.00;101325.56;5045165;28;20043;-64
2022/06/07 07:07:41;;;;;;;14.70;10.85;;;;;;;16.25;100.00;101331.72;5045528;28;20164;-64
2022/06/07 07:10:08;;;;;;;16.17;11.68;;;;;;;15.98;100.00;101325.88;5044065;28;20111;-64
2022/06/07 07:12:34;;;;;;;15.77;11.25;;;;;;;16.31;100.00;101331.31;5044536;28;20043;-63
2022/06/07 07:15:00;;;;;;;15.27;11.65;;;;;;;15.84;100.00;101325.09;5041872;28;20037;-64
2022/06/07 07:17:25;;;;;;;15.02;11.45;;;;;;;16.39;100.00;101334.50;5049290;28;20035;-64
2022/06/07 07:19:51;;;;;;;15.77;11.57;;;;;;;16.32;100.00;101329.38;5064983;28;20031;-64
2022/06/07 07:22:18;;;;;;;14.50;11.70;;;;;;;16.13;100.00;101330.31;5065333;28;20094;-64
2022/06/07 07:24:43;;;;;;;16.42;11.95;;;;;;;16.37;100.00;101325.69;5060962;28;20394;-65
2022/06/07 07:27:09;;;;;;;17.38;11.05;;;;;;;15.93;100.00;101333.47;5063958;28;20032;-63
2022/06/07 07:29:34;;;;;;;15.55;11.00;;;;;;;16.23;100.00;101334.78;5062670;28;20119;-63
2022/06/07 07:32:00;;;;;;;12.68;10.68;;;;;;;16.57;100.00;101330.75;5060227;28;20028;-64
2022/06/07 07:34:26;;;;;;;14.60;10.90;;;;;;;16.44;100.00;101329.66;5064528;28;20059;-63
2022/06/07 07:36:53;;;;;;;15.63;11.05;;;;;;;16.33;100.00;101329.06;5064828;28;20396;-65
2022/06/07 07:39:19;;;;;;;16.88;10.60;;;;;;;16.66;100.00;101328.06;5065051;28;20025;-64
2022/06/07 07:41:56;;;;;;;15.80;11.27;;;;;;;15.92;100.00;101337.34;5062249;28;20032;-63
2022/06/07 07:44:23;;;;;;;16.00;10.80;;;;;;;16.33;100.00;101336.53;5061954;28;20024;-65
2022/06/07 07:46:55;;;;;;;17.20;10.85;;;;;;;16.57;100.00;101336.28;5045755;28;20024;-64
2022/06/07 07:49:22;;;;;;;12.02;10.27;;;;;;;16.48;100.00;101335.41;5060210;28;20128;-65
2022/06/07 07:51:51;;;;;;;17.52;10.93;;;;;;;16.60;100.00;101340.41;5060969;28;20033;-65
2022/06/07 07:54:21;;;;;;;12.90;10.57;;;;;;;16.66;100.00;101339.97;5060903;28;20024;-64
2022/06/07 07:56:48;;;;;;;16.05;10.68;;;;;;;16.64;100.00;101353.31;5063342;28;20123;-64
2022/06/07 07:59:19;;;;;;;15.32;11.20;;;;;;;16.39;100.00;101346.38;5061546;28;20059;-65
2022/06/07 08:01:46;;;;;;;16.40;11.32;;;;;;;17.08;100.00;101346.22;5059615;28;20036;-64
2022/06/07 08:04:12;;;;;;;11.73;10.50;;;;;;;16.44;100.00;101354.56;5047116;28;20028;-64
2022/06/07 08:06:38;;;;;;;14.68;11.40;;;;;;;16.36;100.00;101346.97;5062971;28;20029;-64
2022/06/07 08:09:06;;;;;;;14.05;10.52;;;;;;;16.25;100.00;101351.94;5055426;28;20300;-64
2022/06/07 08:11:35;;;;;;;15.35;11.50;;;;;;;16.63;100.00;101340.59;5043071;28;20501;-64
2022/06/07 08:14:03;;;;;;;16.33;11.45;;;;;;;16.93;100.00;101363.19;5038852;28;20293;-65
2022/06/07 08:16:29;;;;;;;13.63;11.73;;;;;;;16.80;100.00;101356.53;5042671;28;20115;-63
2022/06/07 08:18:54;;;;;;;13.93;11.52;;;;;;;16.94;100.00;101356.53;5044021;28;20424;-65
2022/06/07 08:21:25;;;;;;;18.42;11.82;;;;;;;16.47;100.00;101356.72;5024749;28;20033;-64
2022/06/07 08:23:51;;;;;;;17.00;11.77;;;;;;;16.67;100.00;101351.84;5039662;28;20040;-63
2022/06/07 08:26:17;;;;;;;14.57;11.52;;;;;;;16.97;100.00;101347.63;5043161;28;20028;-63
2022/06/07 08:28:44;;;;;;;11.30;10.15;;;;;;;16.68;100.00;101346.00;5041633;28;20286;-64
2022/06/07 08:31:25;;;;;;;16.95;11.75;;;;;;;16.68;100.00;101350.75;5038761;28;20024;-64
2022/06/07 08:39:19;;;;;;;15.38;11.52;;;;;;;17.05;100.00;101341.31;5041345;28;20399;-64
2022/06/07 08:41:53;;;;;;;16.23;11.48;;;;;;;16.65;100.00;101359.66;5042079;28;20025;-64
2022/06/07 08:44:26;;;;;;;15.80;11.93;;;;;;;17.08;100.00;101348.16;5042012;28;20036;-64
2022/06/07 08:46:56;;;;;;;13.35;11.90;;;;;;;16.79;100.00;101349.38;5038523;28;20029;-64
2022/06/07 08:49:22;;;;;;;13.55;11.80;;;;;;;17.07;100.00;101352.91;5043388;28;20051;-64
2022/06/07 08:51:53;;;;;;;13.95;11.15;;;;;;;17.13;100.00;101355.53;5024790;28;20025;-64
2022/06/07 08:54:25;;;;;;;17.77;11.93;;;;;;;17.02;100.00;101354.97;5042427;28;20103;-64
2022/06/07 08:56:53;;;;;;;13.70;10.77;;;;;;;17.92;100.00;101357.69;5042110;28;20037;-65
2022/06/07 08:59:21;;;;;;;15.38;12.30;;;;;;;17.67;100.00;101353.59;5025556;28;20049;-64
2022/06/07 09:01:59;;;;;;;16.00;12.85;;;;;;;18.22;100.00;101360.75;5041362;28;20032;-64
2022/06/07 09:04:30;;;;;;;15.18;12.45;;;;;;;17.72;100.00;101364.56;5043231;28;20139;-65
2022/06/07 09:07:01;;;;;;;15.43;11.73;;;;;;;18.12;100.00;101361.84;5040703;28;20098;-64
2022/06/07 09:12:09;;;;;;;15.18;11.70;;;;;;;17.78;100.00;101359.72;5041903;28;20455;-64
2022/06/07 09:12:21;;;;;;;15.10;13.18;;;;;;;17.36;100.00;101362.72;5041546;28;20269;-65
2022/06/07 09:14:52;;;;;;;15.07;12.32;;;;;;;16.66;100.00;101361.28;5042900;28;20064;-65
2022/06/07 09:17:28;;;;;;;14.43;12.25;;;;;;;17.76;100.00;101346.16;5041906;28;20041;-64
2022/06/07 09:19:54;;;;;;;14.52;11.55;;;;;;;17.62;100.00;101359.28;5042019;28;20025;-64
2022/06/07 09:22:29;;;;;;;15.88;12.95;;;;;;;16.97;100.00;101352.31;5041963;28;20112;-65
2022/06/07 09:25:24;;;;;;;15.57;12.52;;;;;;;17.04;100.00;101347.97;5038064;28;20029;-67
2022/06/07 09:27:52;;;;;;;16.10;12.85;;;;;;;17.53;100.00;101350.94;5042393;28;20045;-64
2022/06/07 09:30:33;;;;;;;16.92;13.00;;;;;;;17.68;100.00;101358.03;5024063;28;20346;-64
2022/06/07 09:33:06;;;;;;;14.95;12.57;;;;;;;17.58;100.00;101353.56;5040830;28;20021;-63
2022/06/07 09:35:37;;;;;;;14.55;12.50;;;;;;;17.08;100.00;101362.03;5043326;28;20021;-64
2022/06/07 09:38:17;;;;;;;14.25;11.88;;;;;;;17.88;100.00;101355.88;5041419;28;20032;-64
2022/06/07 09:40:54;;;;;;;17.27;13.65;;;;;;;18.24;100.00;101352.09;5039029;28;20033;-65
2022/06/07 09:43:26;;;;;;;16.35;13.48;;;;;;;17.97;100.00;101354.78;5041025;28;20025;-65
2022/06/07 09:46:05;;;;;;;16.13;13.05;;;;;;;17.55;100.00;101359.75;5038921;28;20143;-68
2022/06/07 09:48:36;;;;;;;15.30;12.52;;;;;;;17.68;100.00;101363.56;5045427;28;20028;-65
2022/06/07 09:51:13;;;;;;;16.80;12.50;;;;;;;17.62;100.00;101367.63;5045678;28;20033;-65
2022/06/07 09:54:00;;;;;;;14.63;12.68;;;;;;;17.73;100.00;101370.94;5044482;28;20056;-65
2022/06/07 09:56:54;;;;;;;18.27;13.93;;;;;;;17.54;100.00;101360.88;5043978;28;20037;-64
2022/06/07 09:59:19;;;;;;;;;;;;;;;17.03;100.00;101364.91;5045185;28;20486;-65
2022/06/07 10:01:59;;;;;;;16.97;12.73;;;;;;;18.37;100.00;101359.47;5045130;28;19912;-65
2022/06/07 10:04:40;;;;;;;16.80;12.80;;;;;;;17.74;100.00;101364.25;5046841;28;20790;-65
2022/06/07 10:07:26;;;;;;;14.73;13.20;;;;;;;18.45;100.00;101367.00;5043121;28;20493;-64
2022/06/07 10:10:11;;;;;;;14.65;12.45;;;;;;;18.50;100.00;101368.81;5043309;28;20047;-65
2022/06/07 10:12:48;;;;;;;16.08;12.85;;;;;;;17.67;100.00;101370.25;5046619;28;20068;-65
2022/06/07 10:15:32;;;;;;;15.73;13.02;;;;;;;17.75;100.00;101366.69;5041685;28;20028;-63
2022/06/07 10:18:15;;;;;;;14.50;12.98;;;;;;;18.54;100.00;101367.84;5045574;28;20655;-65
2022/06/07 10:20:49;;;;;;;16.67;13.38;;;;;;;18.20;100.00;101374.13;5045166;28;20351;-65
2022/06/07 10:23:32;;;;;;;13.80;12.40;;;;;;;18.79;100.00;101373.78;5044887;28;20029;-65
2022/06/07 10:26:16;;;;;;;14.68;12.68;;;;;;;18.20;100.00;101365.81;5041883;28;20044;-65
2022/06/07 10:29:01;;;;;;;13.55;12.13;;;;;;;18.80;100.00;101371.81;5045066;28;20386;-65
2022/06/07 10:31:35;;;;;;;13.00;11.70;;;;;;;19.31;100.00;101364.63;5042896;28;20100;-65
2022/06/07 10:34:23;;;;;;;16.48;12.60;;;;;;;18.22;100.00;101360.75;5041793;28;20566;-64
2022/06/07 10:37:06;;;;;;;15.48;12.23;;;;;;;17.83;100.00;101373.44;5043891;28;20045;-64
2022/06/07 10:39:53;;;;;;;15.10;12.07;;;;;;;18.79;100.00;101373.78;5042341;28;20383;-64
2022/06/07 10:42:25;;;;;;;14.18;12.30;;;;;;;19.81;100.00;101377.16;5039551;28;20148;-65
2022/06/07 10:45:19;;;;;;;13.82;11.38;;;;;;;19.52;100.00;101373.09;5045268;28;20548;-64
2022/06/07 10:48:00;;;;;;;12.10;10.90;;;;;;;19.14;100.00;101375.78;5041541;28;20040;-65
2022/06/07 10:50:40;;;;;;;15.00;11.43;;;;;;;19.60;100.00;101369.50;5044118;28;20103;-65
2022/06/07 10:53:16;;;;;;;17.73;12.35;;;;;;;18.53;100.00;101382.88;5042204;28;20466;-65
2022/06/07 10:56:03;;;;;;;14.32;12.93;;;;;;;17.90;100.00;101375.78;5042919;28;20418;-63
2022/06/07 10:58:36;;;;;;;15.80;12.35;;;;;;;19.08;100.00;101367.59;5040029;28;20187;-65
2022/06/07 11:01:19;;;;;;;14.98;11.45;;;;;;;19.48;100.00;101383.28;5040588;28;20041;-64
2022/06/07 11:04:01;;;;;;;14.70;12.50;;;;;;;19.88;100.00;101376.66;5044506;28;20032;-65
2022/06/07 11:09:43;;;;;;;14.32;12.43;;;;;;;18.74;100.00;101379.47;5043525;28;20086;-65
2022/06/07 11:12:19;;;;;;;15.57;12.52;;;;;;;18.79;100.00;101384.88;5041976;28;20134;-65
2022/06/07 11:15:02;;;;;;;15.93;13.18;;;;;;;18.62;100.00;101395.94;5044615;28;20025;-64
2022/06/07 11:17:46;;;;;;;14.95;12.95;;;;;;;18.40;100.00;101382.97;5041810;28;20411;-64
2022/06/07 11:20:25;;;;;;;13.63;11.73;;;;;;;18.84;100.00;101384.75;5043347;28;20333;-64
2022/06/07 11:23:12;;;;;;;14.27;12.43;;;;;;;19.22;100.00;101386.06;5045573;28;20103;-64
2022/06/07 11:25:57;;;;;;;12.90;11.60;;;;;;;19.26;100.00;101389.81;5042389;28;20132;-64
2022/06/07 11:28:32;;;;;;;10.95;9.85;;;;;;;18.27;100.00;101380.03;5049179;28;20807;-65
2022/06/07 11:31:28;;;;;;;11.98;10.82;;;;;;;18.51;100.00;101389.88;5062612;28;20029;-64
2022/06/07 11:33:53;;;;;;;14.15;11.20;;;;;;;17.68;100.00;101379.41;5065104;28;20056;-65
2022/06/07 11:36:25;;;;;;;11.43;10.32;;;;;;;18.35;100.00;101386.75;5061948;28;20347;-64
2022/06/07 11:38:56;;;;;;;12.15;9.68;;;;;;;19.06;100.00;101371.84;5060351;28;20033;-65